Latest Weather Observations for Moruya Airport

IDN60901

Issued at 10:31 am EST Thursday 21 June 2018 (issued every 10 minutes, with the page automatically refreshed every 10 minutes)

About weather observations | Map of Canberra area stations | Latest observations for Canberra area | Other Formats
Station Details ID: 069148 Name: MORUYA AIRPORT AWS Lat: -35.90 Lon: 150.14 Height: 4.0 m
Data from the previous 72 hours. | See also: Recent months at Moruya Airport
Date/Time
EST
Temp
°C
App
Temp
°C
Dew
Point
°C
Rel
Hum
%
Delta-T
°C
Wind Press
QNH
hPa
Press
MSL
hPa
Rain since
9am
mm
Dir  Spd
km/h
Gust
km/h
Spd
kts
Gust
kts
21/10:30am 12.5 9.9 6.1 65 3.0 WSW 9 13 5 7 1028.7 1028.7 0.0
21/10:00am 10.4 7.3 5.6 72 2.2 SW 11 15 6 8 1028.9 1028.9 0.0
21/09:30am 9.1 6.4 5.5 78 1.6 SW 9 13 5 7 1028.8 1028.8 0.0
21/09:00am 7.7 5.4 4.8 82 1.3 SW 6 11 3 6 1028.7 1028.7 0.0
21/08:30am 6.1 3.6 3.9 86 0.9 WSW 6 11 3 6 1028.6 1028.6 0.0
21/08:00am 4.7 1.6 3.4 91 0.5 SW 9 11 5 6 1028.5 1028.5 0.0
21/07:30am 4.3 1.5 3.0 91 0.5 WSW 7 11 4 6 1028.3 1028.3 0.0
21/07:00am 4.6 1.8 3.3 91 0.5 W 7 11 4 6 1028.1 1028.1 0.0
21/06:30am 4.7 1.9 3.4 91 0.5 W 7 11 4 6 1027.9 1027.9 0.0
21/06:00am 4.7 1.9 3.0 89 0.7 WSW 7 13 4 7 1027.5 1027.5 0.0
21/05:30am 5.1 2.3 3.4 89 0.7 WSW 7 11 4 6 1027.4 1027.4 0.0
21/05:00am 5.7 3.1 4.0 89 0.7 W 7 11 4 6 1027.2 1027.2 0.0
21/04:30am 5.4 2.9 3.7 89 0.7 WSW 6 9 3 5 1027.1 1027.1 0.0
21/04:00am 5.7 3.3 4.2 90 0.6 W 6 9 3 5 1027.2 1027.2 0.0
21/03:30am 5.6 3.2 4.4 92 0.5 WSW 6 7 3 4 1027.2 1027.2 0.0
21/03:00am 5.8 3.3 4.6 92 0.5 WSW 7 9 4 5 1027.3 1027.3 0.0
21/02:30am 5.5 3.0 4.6 94 0.4 WSW 7 11 4 6 1027.5 1027.5 0.0
21/02:00am 5.7 4.2 4.8 94 0.4 W 2 7 1 4 1027.5 1027.5 0.0
21/01:51am 5.7 4.2 4.8 94 0.4 WSW 2 7 1 4 1027.4 1027.4 0.0
21/01:39am 5.7 4.5 4.8 94 0.4 CALM 0 0 0 0 1027.4 1027.4 0.0
21/01:30am 5.5 3.9 4.6 94 0.4 W 2 7 1 4 1027.3 1027.3 0.0
21/01:00am 5.9 3.6 5.0 94 0.4 W 6 7 3 4 1027.5 1027.5 0.0
21/12:30am 6.0 4.1 5.1 94 0.4 WSW 4 9 2 5 1027.6 1027.6 0.0
21/12:23am 6.1 5.0 5.2 94 0.4 CALM 0 0 0 0 1027.6 1027.6 0.0
21/12:00am 5.6 4.4 4.6 93 0.4 CALM 0 0 0 0 1027.8 1027.8 0.0
 
Date/Time
EST
Temp
°C
App
Temp
°C
Dew
Point
°C
Rel
Hum
%
Delta-T
°C
Wind Press
QNH
hPa
Press
MSL
hPa
Rain since
9am
mm
Dir  Spd
km/h
Gust
km/h
Spd
kts
Gust
kts
20/11:51pm 5.8 4.6 4.8 93 0.4 CALM 0 0 0 0 1027.9 1027.9 0.0
20/11:44pm 5.8 4.6 4.8 93 0.4 CALM 0 0 0 0 1027.9 1027.9 0.0
20/11:30pm 6.1 5.0 5.1 93 0.4 CALM 0 2 0 1 1028.0 1028.0 0.0
20/11:28pm 6.2 5.1 5.2 93 0.4 CALM 0 2 0 1 1028.0 1028.0 0.0
20/11:00pm 6.7 5.0 5.7 93 0.4 W 4 7 2 4 1028.2 1028.2 0.0
20/10:30pm 7.1 4.9 6.0 93 0.5 W 7 9 4 5 1028.2 1028.2 0.0
20/10:00pm 7.1 6.2 6.0 93 0.5 CALM 0 0 0 0 1028.1 1028.1 0.0
20/09:30pm 7.5 5.5 6.3 92 0.5 WSW 6 9 3 5 1028.4 1028.4 0.0
20/09:00pm 7.9 6.0 6.5 91 0.6 WSW 6 9 3 5 1028.5 1028.5 0.0
20/08:30pm 8.2 6.2 6.2 87 0.9 W 6 7 3 4 1028.5 1028.5 0.0
20/08:00pm 8.8 6.7 6.6 86 1.0 W 7 11 4 6 1028.5 1028.5 0.0
20/07:30pm 9.4 7.0 7.0 85 1.1 W 9 13 5 7 1028.5 1028.5 0.0
20/07:00pm 9.0 6.7 7.5 90 0.7 W 9 13 5 7 1028.2 1028.2 0.0
20/06:30pm 8.8 7.1 7.7 93 0.5 W 6 9 3 5 1028.1 1028.1 0.0
20/06:00pm 9.7 8.2 8.3 91 0.7 WNW 6 7 3 4 1028.0 1028.0 0.0
20/05:30pm 10.8 10.1 8.7 87 1.0 NW 2 7 1 4 1027.9 1027.9 0.0
20/05:00pm 12.4 12.2 9.1 80 1.6 CALM 0 0 0 0 1027.8 1027.8 0.0
20/04:30pm 13.8 13.4 8.4 70 2.7 CALM 0 0 0 0 1027.8 1027.8 0.0
20/04:00pm 15.2 13.2 7.0 58 4.0 S 7 11 4 6 1027.8 1027.8 0.0
20/03:30pm 15.3 13.0 7.3 59 4.0 SSE 9 13 5 7 1027.7 1027.7 0.0
20/03:00pm 15.6 12.6 5.8 52 4.7 SSE 11 13 6 7 1027.6 1027.6 0.0
20/02:30pm 16.0 12.7 4.7 47 5.3 S 11 13 6 7 1027.6 1027.6 0.0
20/02:00pm 16.2 13.4 6.9 54 4.6 S 11 15 6 8 1027.6 1027.6 0.0
20/01:30pm 16.1 12.8 6.5 53 4.7 S 13 17 7 9 1027.7 1027.7 0.0
20/01:00pm 15.9 13.1 8.4 61 3.8 S 13 17 7 9 1028.0 1028.0 0.0
20/12:30pm 16.4 14.4 7.3 55 4.5 SW 7 15 4 8 1028.2 1028.2 0.0
20/12:00pm 16.1 14.2 9.1 63 3.6 WSW 9 11 5 6 1028.5 1028.5 0.0
20/11:30am 15.5 13.8 9.8 69 3.0 SW 9 13 5 7 1029.0 1029.0 0.0
20/11:00am 14.5 13.0 9.1 70 2.7 WSW 7 11 4 6 1029.3 1029.3 0.0
20/10:30am 13.4 12.0 9.5 77 2.0 W 7 11 4 6 1029.5 1029.5 0.0
20/10:00am 12.8 10.9 8.9 77 1.9 W 9 13 5 7 1029.6 1029.6 0.0
20/09:30am 12.2 10.2 8.5 78 1.8 W 9 13 5 7 1029.3 1029.3 0.0
20/09:00am 11.6 9.0 7.9 78 1.8 W 11 15 6 8 1029.0 1029.0 8.4
20/08:30am 10.3 8.2 8.1 86 1.1 W 9 13 5 7 1028.7 1028.7 8.4
20/08:00am 8.7 6.3 7.2 90 0.7 W 9 13 5 7 1028.4 1028.4 8.4
20/07:30am 8.8 6.4 7.1 89 0.8 WSW 9 15 5 8 1028.3 1028.3 8.4
20/07:00am 9.0 6.0 7.5 90 0.7 WSW 13 17 7 9 1028.4 1028.4 8.4
20/06:30am 8.7 6.4 7.6 93 0.5 W 9 13 5 7 1028.4 1028.4 8.4
20/06:06am 8.3 6.0 7.5 95 0.4 W 9 13 5 7 1028.6 1028.6 8.4
20/06:00am 7.7 5.3 6.8 94 0.4 W 9 13 5 7 1028.6 1028.6 8.4
20/05:30am 7.3 6.4 5.9 91 0.6 CALM 0 0 0 0 1028.6 1028.6 8.4
20/05:17am 8.0 6.5 6.8 92 0.6 SW 4 6 2 3 1028.6 1028.6 8.4
20/05:00am 8.6 8.0 7.2 91 0.7 CALM 0 4 0 2 1028.5 1028.5 8.4
20/04:30am 9.8 7.7 8.2 90 0.8 WSW 9 13 5 7 1028.4 1028.4 8.4
20/04:00am 9.8 7.9 7.7 87 1.0 WSW 7 9 4 5 1028.5 1028.5 8.4
20/03:30am 11.4 9.8 8.8 84 1.3 SW 7 11 4 6 1028.7 1028.7 8.4
20/03:00am 12.0 9.2 8.7 80 1.6 WSW 13 17 7 9 1028.8 1028.8 8.4
20/02:30am 11.7 8.6 8.7 82 1.5 WSW 15 20 8 11 1028.4 1028.4 8.4
20/02:00am 11.5 8.7 8.7 83 1.4 WSW 13 19 7 10 1027.9 1027.9 8.4
20/01:30am 11.1 8.3 8.5 84 1.3 WSW 13 19 7 10 1027.8 1027.8 8.4
20/01:00am 10.8 7.6 8.4 85 1.2 SW 15 19 8 10 1027.6 1027.6 8.4
20/12:30am 10.6 7.3 8.0 84 1.3 SW 15 20 8 11 1027.5 1027.5 8.4
20/12:00am 10.7 7.4 8.1 84 1.3 WSW 15 20 8 11 1027.4 1027.4 8.4
 
Date/Time
EST
Temp
°C
App
Temp
°C
Dew
Point
°C
Rel
Hum
%
Delta-T
°C
Wind Press
QNH
hPa
Press
MSL
hPa
Rain since
9am
mm
Dir  Spd
km/h
Gust
km/h
Spd
kts
Gust
kts
19/11:30pm 11.1 7.1 8.3 83 1.4 SW 19 24 10 13 1027.4 1027.4 8.4
19/11:00pm 10.8 7.2 8.4 85 1.2 SW 17 22 9 12 1027.5 1027.5 8.4
19/10:30pm 11.0 7.4 8.4 84 1.3 SW 17 20 9 11 1027.7 1027.7 8.4
19/10:00pm 11.3 7.8 8.7 84 1.3 SW 17 22 9 12 1027.7 1027.7 8.4
19/09:30pm 11.1 8.0 8.7 85 1.2 SW 15 20 8 11 1027.6 1027.6 8.4
19/09:00pm 10.6 8.2 8.7 88 0.9 SW 11 13 6 7 1027.7 1027.7 8.4
19/08:30pm 11.1 8.5 9.2 88 0.9 SW 13 17 7 9 1027.8 1027.8 8.4
19/08:00pm 11.3 9.2 9.7 90 0.8 WSW 11 15 6 8 1027.9 1027.9 8.4
19/07:30pm 11.4 9.7 10.0 91 0.7 SW 9 15 5 8 1028.1 1028.1 8.2
19/07:00pm 11.6 8.9 10.2 91 0.7 SW 15 19 8 10 1027.7 1027.7 8.0
19/06:30pm 11.7 8.5 9.9 89 0.9 SW 17 20 9 11 1027.1 1027.1 7.6
19/06:00pm 11.6 8.5 10.2 91 0.7 WSW 17 24 9 13 1026.8 1026.8 7.6
19/05:30pm 11.7 8.2 10.3 91 0.7 SW 19 26 10 14 1026.3 1026.3 7.6
19/05:00pm 11.9 8.2 10.1 89 0.9 SW 20 33 11 18 1026.0 1026.0 7.4
19/04:34pm 12.0 9.3 10.2 89 0.9 SW 15 24 8 13 1025.8 1025.8 7.2
19/04:30pm 12.0 9.7 10.4 90 0.8 SW 13 22 7 12 1025.9 1025.9 7.2
19/04:17pm 12.2 10.3 10.6 90 0.8 SW 11 17 6 9 1025.9 1025.9 7.0
19/04:00pm 12.6 9.2 10.5 87 1.1 SSW 19 32 10 17 1025.8 1025.8 6.0
19/03:30pm 13.2 9.6 10.4 83 1.5 SW 20 30 11 16 1025.4 1025.4 5.4
19/03:00pm 13.2 9.3 10.9 86 1.2 SW 22 33 12 18 1025.2 1025.2 5.4
19/02:30pm 12.6 8.7 10.7 88 1.0 SW 22 32 12 17 1025.1 1025.1 5.4
19/02:00pm 13.2 9.9 10.9 86 1.2 WSW 19 24 10 13 1024.8 1024.8 5.0
19/01:30pm 12.8 9.5 11.0 89 0.9 SW 19 24 10 13 1024.8 1024.8 5.0
19/01:17pm 12.9 10.8 11.3 90 0.8 SSW 13 22 7 12 1025.0 1025.0 5.0
19/01:00pm 12.2 9.2 10.6 90 0.8 SSE 17 20 9 11 1025.6 1025.6 4.8
19/12:54pm 12.4 9.3 10.3 87 1.1 SSE 17 20 9 11 1025.5 1025.5 2.8
19/12:30pm 14.0 9.2 8.8 71 2.6 SSW 24 35 13 19 1025.0 1025.0 0.4
19/12:00pm 15.1 9.9 9.0 67 3.1 SSW 26 46 14 25 1025.1 1025.1 0.0
19/11:53am 14.5 8.7 8.0 65 3.2 SSW 28 46 15 25 1025.2 1025.2 0.0
19/11:30am 15.7 10.2 7.5 58 4.1 SSW 26 37 14 20 1025.3 1025.3 0.0
19/11:00am 14.1 9.1 7.9 66 3.1 SSW 24 39 13 21 1025.3 1025.3 0.0
19/10:30am 14.8 8.9 7.6 62 3.6 SSW 28 44 15 24 1025.3 1025.3 0.0
19/10:00am 13.9 8.5 7.9 67 3.0 SW 26 32 14 17 1025.4 1025.4 0.0
19/09:30am 13.0 7.6 6.4 64 3.1 SW 24 35 13 19 1025.2 1025.2 0.0
19/09:00am 12.5 5.9 5.9 64 3.1 SW 30 41 16 22 1024.9 1024.9 4.4
19/08:30am 12.1 6.1 5.5 64 3.1 SW 26 33 14 18 1024.5 1024.5 4.4
19/08:00am 11.8 6.5 5.2 64 3.0 SW 22 30 12 16 1024.3 1024.3 4.4
19/07:30am 11.2 5.9 5.1 66 2.8 SW 22 30 12 16 1024.0 1024.0 4.4
19/07:00am 11.5 5.8 4.9 64 3.0 SW 24 33 13 18 1023.8 1023.8 4.4
19/06:30am 11.5 5.8 4.9 64 3.0 SW 24 37 13 20 1023.4 1023.4 4.4
19/06:00am 11.1 5.4 5.0 66 2.8 SW 24 33 13 18 1022.8 1022.8 4.4
19/05:30am 10.8 5.1 5.1 68 2.6 SW 24 32 13 17 1022.7 1022.7 4.4
19/05:00am 10.6 5.1 5.8 72 2.2 SW 24 35 13 19 1022.4 1022.4 4.4
19/04:30am 10.4 4.5 6.0 74 2.0 SW 26 39 14 21 1022.2 1022.2 4.4
19/04:00am 9.8 4.8 6.3 79 1.6 SW 22 30 12 16 1022.2 1022.2 4.4
19/03:30am 9.7 4.4 6.6 81 1.4 SW 24 32 13 17 1022.5 1022.5 4.4
19/03:00am 9.6 5.6 6.7 82 1.3 WSW 17 24 9 13 1022.3 1022.3 4.2
19/02:30am 9.3 5.0 7.1 86 1.0 SW 19 24 10 13 1022.6 1022.6 4.2
19/02:00am 9.7 5.1 6.6 81 1.4 SSW 20 30 11 16 1022.5 1022.5 2.0
19/01:30am 10.2 4.8 6.2 76 1.9 SW 24 35 13 19 1022.1 1022.1 0.8
19/01:00am 11.3 5.5 4.5 63 3.1 SSW 24 35 13 19 1022.2 1022.2 0.4
19/12:30am 11.0 4.8 4.2 63 3.0 SW 26 35 14 19 1021.8 1021.8 0.4
19/12:00am 10.4 4.9 4.1 65 2.8 SW 22 33 12 18 1022.0 1022.0 0.4
 
Date/Time
EST
Temp
°C
App
Temp
°C
Dew
Point
°C
Rel
Hum
%
Delta-T
°C
Wind Press
QNH
hPa
Press
MSL
hPa
Rain since
9am
mm
Dir  Spd
km/h
Gust
km/h
Spd
kts
Gust
kts
18/11:30pm 10.4 4.9 3.9 64 2.9 SW 22 32 12 17 1021.8 1021.8 0.4
18/11:00pm 10.2 5.1 3.9 65 2.8 SW 20 32 11 17 1021.8 1021.8 0.2
18/10:30pm 10.2 4.4 4.4 67 2.6 SW 24 35 13 19 1021.9 1021.9 0.2
18/10:00pm 10.1 3.5 4.3 67 2.6 SW 28 39 15 21 1021.8 1021.8 0.2
18/09:30pm 9.9 3.8 4.9 71 2.2 SW 26 37 14 20 1021.7 1021.7 0.2
18/09:00pm 10.0 3.9 5.0 71 2.2 SW 26 41 14 22 1021.9 1021.9 0.2
18/08:30pm 10.5 3.8 5.5 71 2.3 SSW 30 44 16 24 1021.9 1021.9 0.2
18/08:00pm 11.5 6.3 3.8 59 3.4 SW 20 32 11 17 1021.6 1021.6 0.0
18/07:30pm 10.7 5.7 3.7 62 3.1 SW 19 26 10 14 1021.2 1021.2 0.0
18/07:00pm 10.5 6.4 4.6 67 2.6 WSW 15 20 8 11 1021.2 1021.2 0.0
18/06:30pm 11.0 6.0 4.7 65 2.8 SW 20 30 11 16 1021.0 1021.0 0.0
18/06:00pm 11.1 6.3 5.6 69 2.5 SSW 20 32 11 17 1020.8 1020.8 0.0
18/05:30pm 11.4 6.7 6.1 70 2.5 SW 20 30 11 16 1020.4 1020.4 0.0
18/05:00pm 11.9 7.0 6.8 71 2.4 SSW 22 32 12 17 1020.0 1020.0 0.0
18/04:30pm 12.0 6.9 7.5 74 2.2 SSW 24 37 13 20 1019.6 1019.6 0.0
18/04:00pm 12.4 7.2 7.3 71 2.5 SSW 24 33 13 18 1019.3 1019.3 0.0
18/03:30pm 12.7 6.1 7.6 71 2.5 SSW 32 50 17 27 1019.0 1019.0 0.0
18/03:28pm 12.8 6.5 7.5 70 2.6 SSW 30 50 16 27 1018.9 1018.9 0.0
18/03:00pm 14.8 8.9 5.9 55 4.2 SSW 26 41 14 22 1018.3 1018.3 0.0
18/02:37pm 15.3 9.1 6.1 54 4.4 SSW 28 46 15 25 1018.0 1018.0 0.0
18/02:30pm 15.4 9.6 6.2 54 4.4 SSW 26 46 14 25 1017.8 1017.8 0.0
18/02:00pm 15.7 10.3 6.2 53 4.6 SSW 24 35 13 19 1017.7 1017.7 0.0
18/01:30pm 15.8 9.9 6.0 52 4.7 SSW 26 37 14 20 1017.5 1017.5 0.0
18/01:00pm 16.1 10.6 6.0 51 4.9 SSW 24 43 13 23 1017.6 1017.6 0.0
18/12:30pm 15.9 9.2 5.8 51 4.9 SSW 30 44 16 24 1017.6 1017.6 0.0
18/12:00pm 15.6 8.8 5.2 50 4.9 SSW 30 48 16 26 1017.7 1017.7 0.0
18/11:44am 16.3 10.0 5.6 49 5.1 SSW 28 46 15 25 1017.9 1017.9 0.0
18/11:30am 15.6 10.6 6.3 54 4.5 SW 22 30 12 16 1018.0 1018.0 0.0
18/11:00am 14.6 8.7 5.7 55 4.2 SSW 26 37 14 20 1018.2 1018.2 0.0

Latest Capital City Observations: Canberra | Sydney | Melbourne | Brisbane | Adelaide | Perth | Hobart | Darwin

Other Formats:

Comma delimited format used in spreadsheet applications
http://www.bom.gov.au/fwo/IDN60903/IDN60903.95937.axf

JavaScript Object Notation format (JSON) in row-major order
http://www.bom.gov.au/fwo/IDN60903/IDN60903.95937.json